Time;durP1;ratioP1;P1;durP2;ratioP2;P2;SDS_P1;SDS_P2;PMS_P1;PMS_P2;Temp;Humidity;BMP_temperature;BMP_pressure;BME280_temperature;BME280_humidity;BME280_pressure;Samples;Min_cycle;Max_cycle;Signal;HPM_P1;HPM_P2
2023/11/01 00:01:45;;;;;;;24.05;3.00;;;;;;;12.62;100.00;97551.78;4973920;28;20513;-92
2023/11/01 00:04:11;;;;;;;21.10;2.80;;;;;;;12.64;100.00;97555.03;4988454;28;20041;-92
2023/11/01 00:06:37;;;;;;;21.98;2.80;;;;;;;12.60;100.00;97544.06;4986072;28;20429;-92
2023/11/01 00:09:03;;;;;;;25.48;2.78;;;;;;;12.61;100.00;97552.84;4972208;28;20026;-93
2023/11/01 00:11:31;;;;;;;17.85;3.00;;;;;;;12.58;100.00;97559.38;4971717;28;20126;-91
2023/11/01 00:13:57;;;;;;;17.75;2.10;;;;;;;12.59;100.00;97546.94;4991473;28;20133;-91
2023/11/01 00:16:23;;;;;;;24.90;2.92;;;;;;;12.56;100.00;97524.38;4974111;28;20493;-93
2023/11/01 00:18:52;;;;;;;9.20;2.33;;;;;;;12.50;100.00;97517.34;4978122;28;20065;-93
2023/11/01 00:21:17;;;;;;;12.50;2.55;;;;;;;12.45;100.00;97506.63;4992125;28;20046;-92
2023/11/01 00:23:43;;;;;;;18.48;2.38;;;;;;;12.45;100.00;97494.19;4993796;28;20361;-94
2023/11/01 00:26:11;;;;;;;17.85;1.83;;;;;;;12.45;100.00;97501.34;4993448;28;20041;-92
2023/11/01 00:28:37;;;;;;;14.80;1.92;;;;;;;12.33;100.00;97496.81;4977324;28;20040;-92
2023/11/01 00:31:04;;;;;;;16.30;1.95;;;;;;;12.33;100.00;97486.22;4970452;28;20054;-91
2023/11/01 00:33:29;;;;;;;14.18;2.10;;;;;;;12.33;100.00;97480.13;4975400;28;20348;-93
2023/11/01 00:35:55;;;;;;;12.73;1.70;;;;;;;12.34;100.00;97482.53;4975574;28;20038;-92
2023/11/01 00:38:22;;;;;;;18.23;2.10;;;;;;;12.34;100.00;97469.28;4995057;28;20099;-94
2023/11/01 00:40:47;;;;;;;22.90;2.92;;;;;;;12.38;100.00;97462.53;5005856;28;20042;-92
2023/11/01 00:43:13;;;;;;;24.75;3.00;;;;;;;12.40;100.00;97452.50;4989870;28;20040;-92
2023/11/01 00:45:39;;;;;;;24.77;3.47;;;;;;;12.44;100.00;97447.53;4994194;28;20050;-93
2023/11/01 00:48:05;;;;;;;28.42;5.50;;;;;;;12.46;100.00;97442.81;5005134;28;20390;-93
2023/11/01 00:50:31;;;;;;;30.65;4.47;;;;;;;12.49;100.00;97452.13;4992433;28;20060;-92
2023/11/01 00:52:57;;;;;;;29.02;3.97;;;;;;;12.51;100.00;97460.69;5008831;28;20128;-94
2023/11/01 00:55:23;;;;;;;33.45;3.92;;;;;;;12.52;100.00;97455.16;4993397;28;20037;-91
2023/11/01 00:57:49;;;;;;;32.67;4.05;;;;;;;12.55;100.00;97450.44;4980418;28;20037;-92
2023/11/01 01:00:16;;;;;;;14.52;1.85;;;;;;;12.48;100.00;97419.56;5011020;28;20057;-93
2023/11/01 01:02:42;;;;;;;10.82;1.25;;;;;;;12.34;100.00;97421.63;4995870;28;20029;-91
2023/11/01 01:05:08;;;;;;;13.25;1.98;;;;;;;12.25;100.00;97420.34;4977208;28;20042;-91
2023/11/01 01:07:36;;;;;;;13.27;1.65;;;;;;;12.22;100.00;97411.03;4976708;28;20177;-90
2023/11/01 01:10:02;;;;;;;16.65;2.25;;;;;;;12.24;100.00;97411.63;5004147;28;20034;-91
2023/11/01 01:12:29;;;;;;;15.60;1.80;;;;;;;12.25;100.00;97401.81;4987701;28;20280;-85
2023/11/01 01:14:57;;;;;;;21.23;2.53;;;;;;;12.26;100.00;97396.28;4977345;28;20034;-90
2023/11/01 01:17:23;;;;;;;22.13;2.45;;;;;;;12.26;100.00;97383.06;4995444;28;20030;-90
2023/11/01 01:19:48;;;;;;;24.88;3.25;;;;;;;12.31;100.00;97376.28;4995975;28;20037;-92
2023/11/01 01:22:14;;;;;;;30.58;3.25;;;;;;;12.33;100.00;97368.88;5004942;28;20038;-92
2023/11/01 01:24:40;;;;;;;34.13;3.88;;;;;;;12.37;100.00;97359.47;4992840;28;20042;-88
2023/11/01 01:27:05;;;;;;;33.08;3.97;;;;;;;12.39;100.00;97355.53;4971695;28;20036;-92
2023/11/01 01:29:31;;;;;;;27.83;3.72;;;;;;;12.41;100.00;97344.69;5001194;28;20105;-91
2023/11/01 01:31:57;;;;;;;30.98;3.88;;;;;;;12.45;100.00;97348.50;4980304;28;20044;-92
2023/11/01 01:34:23;;;;;;;36.45;4.90;;;;;;;12.46;100.00;97338.69;5013155;28;20042;-80
2023/11/01 01:36:48;;;;;;;27.33;3.63;;;;;;;12.45;100.00;97339.75;4983075;28;20605;-90
2023/11/01 01:39:14;;;;;;;21.38;2.60;;;;;;;12.46;100.00;97342.16;4979398;28;20045;-90
2023/11/01 01:41:40;;;;;;;10.40;1.52;;;;;;;12.41;100.00;97315.56;5010241;28;20542;-92
2023/11/01 01:44:06;;;;;;;4.28;0.52;;;;;;;12.24;100.00;97310.19;4997542;28;20045;-92
2023/11/01 01:46:32;;;;;;;4.68;0.65;;;;;;;12.10;100.00;97309.63;4977176;28;20470;-91
2023/11/01 01:48:58;;;;;;;3.15;0.60;;;;;;;12.01;100.00;97301.19;4984439;28;20027;-92
2023/11/01 01:51:26;;;;;;;5.30;0.70;;;;;;;11.93;100.00;97297.06;4994417;28;20038;-92
2023/11/01 01:53:52;;;;;;;2.65;0.50;;;;;;;11.86;100.00;97294.56;5012473;28;20042;-92
2023/11/01 01:56:19;;;;;;;2.75;0.60;;;;;;;11.85;100.00;97282.34;4980341;28;20052;-91
2023/11/01 01:58:45;;;;;;;3.63;0.68;;;;;;;11.78;100.00;97276.38;4976341;28;20180;-91
2023/11/01 02:01:13;;;;;;;5.00;0.60;;;;;;;11.78;100.00;97273.72;4994339;28;20041;-91
2023/11/01 02:03:40;;;;;;;1.58;0.32;;;;;;;11.77;100.00;97270.28;5007415;28;20132;-92
2023/11/01 02:06:06;;;;;;;4.13;0.50;;;;;;;11.71;100.00;97273.03;5001022;28;20046;-90
2023/11/01 02:08:32;;;;;;;5.25;0.63;;;;;;;11.65;100.00;97269.47;4975149;28;20437;-94
2023/11/01 02:10:58;;;;;;;3.45;0.40;;;;;;;11.65;100.00;97264.19;4992727;28;20046;-92
2023/11/01 02:13:24;;;;;;;5.57;0.75;;;;;;;11.60;100.00;97266.69;4983525;28;20069;-93
2023/11/01 02:15:50;;;;;;;3.53;0.57;;;;;;;11.55;100.00;97264.75;5000939;28;20029;-92
2023/11/01 02:18:16;;;;;;;7.38;0.80;;;;;;;11.54;100.00;97269.25;5009856;28;20050;-92
2023/11/01 02:20:46;;;;;;;7.20;0.70;;;;;;;11.58;100.00;97260.84;5008048;28;20038;-92
2023/11/01 02:23:12;;;;;;;5.88;0.80;;;;;;;11.52;100.00;97247.50;5008236;28;20045;-91
2023/11/01 02:25:40;;;;;;;9.32;0.65;;;;;;;11.55;100.00;97248.88;4989037;28;20049;-92
2023/11/01 02:28:07;;;;;;;5.20;0.52;;;;;;;11.54;100.00;97240.16;4992805;28;20100;-92
2023/11/01 02:30:39;;;;;;;7.28;0.70;;;;;;;11.53;100.00;97243.03;5007191;28;20479;-92
2023/11/01 02:33:06;;;;;;;5.97;0.80;;;;;;;11.51;100.00;97229.22;4990536;28;20065;-92
2023/11/01 02:35:32;;;;;;;5.30;0.57;;;;;;;11.49;100.00;97221.53;4981786;28;20037;-92
2023/11/01 02:37:57;;;;;;;5.88;0.70;;;;;;;11.51;100.00;97216.00;4986676;28;20039;-91
2023/11/01 02:40:23;;;;;;;3.25;0.45;;;;;;;11.49;100.00;97218.06;4995795;28;20046;-91
2023/11/01 02:42:55;;;;;;;5.53;0.60;;;;;;;11.50;100.00;97219.66;4992364;28;20030;-92
2023/11/01 02:45:21;;;;;;;9.00;0.60;;;;;;;11.47;100.00;97218.28;5022877;28;20072;-91
2023/11/01 02:47:48;;;;;;;2.15;0.52;;;;;;;11.48;100.00;97222.53;4973369;28;20040;-93
2023/11/01 02:50:16;;;;;;;4.28;0.45;;;;;;;11.50;100.00;97225.75;4996840;28;20540;-92
2023/11/01 02:52:42;;;;;;;5.68;0.50;;;;;;;11.49;100.00;97229.44;4976052;28;20038;-92
2023/11/01 02:55:10;;;;;;;3.58;0.47;;;;;;;11.54;100.00;97239.34;5008330;28;20117;-92
2023/11/01 02:57:36;;;;;;;3.75;0.70;;;;;;;11.53;100.00;97230.59;4984206;28;20053;-93
2023/11/01 03:00:07;;;;;;;5.95;0.70;;;;;;;11.50;100.00;97238.19;4988458;28;20044;-94
2023/11/01 03:02:34;;;;;;;6.93;0.80;;;;;;;11.46;100.00;97234.38;5002693;28;20505;-92
2023/11/01 03:05:00;;;;;;;7.03;0.65;;;;;;;11.47;100.00;97228.88;4968767;28;20088;-92
2023/11/01 03:07:26;;;;;;;6.97;0.70;;;;;;;11.47;100.00;97225.41;5009577;28;20038;-93
2023/11/01 03:09:52;;;;;;;6.10;0.60;;;;;;;11.45;100.00;97214.28;4985864;28;20372;-94
2023/11/01 03:12:18;;;;;;;6.35;0.75;;;;;;;11.44;100.00;97204.72;4985242;28;20041;-91
2023/11/01 03:14:44;;;;;;;4.28;0.80;;;;;;;11.47;100.00;97194.50;4991568;28;20022;-90
2023/11/01 03:17:10;;;;;;;4.93;0.60;;;;;;;11.49;100.00;97179.19;4989613;28;20123;-90
2023/11/01 03:19:39;;;;;;;7.63;1.02;;;;;;;11.57;100.00;97167.47;4985124;28;20468;-91
2023/11/01 03:22:05;;;;;;;1.30;0.30;;;;;;;11.52;100.00;97154.94;4991895;28;20041;-91
2023/11/01 03:24:31;;;;;;;3.70;0.43;;;;;;;11.52;100.00;97141.72;5003242;28;20471;-90
2023/11/01 03:26:58;;;;;;;5.18;0.70;;;;;;;11.54;100.00;97110.56;4975839;28;20038;-91
2023/11/01 03:29:24;;;;;;;3.33;0.50;;;;;;;11.62;100.00;97114.69;4969635;28;20030;-91
2023/11/01 03:31:50;;;;;;;2.83;0.30;;;;;;;11.63;100.00;97137.44;4985191;28;20047;-91
2023/11/01 03:34:16;;;;;;;2.08;0.50;;;;;;;11.57;100.00;97129.63;4972219;28;20057;-92
2023/11/01 03:36:42;;;;;;;7.28;0.68;;;;;;;11.50;100.00;97125.25;4992517;28;20076;-92
2023/11/01 03:39:09;;;;;;;4.53;0.80;;;;;;;11.51;100.00;97124.25;4992650;28;20025;-92
2023/11/01 03:41:42;;;;;;;3.70;0.60;;;;;;;11.55;100.00;97079.59;5009173;28;20415;-91
2023/11/01 03:44:09;;;;;;;3.53;0.73;;;;;;;11.50;100.00;97045.91;5007522;28;20037;-91
2023/11/01 03:46:36;;;;;;;14.60;0.75;;;;;;;11.52;100.00;97083.53;4980515;28;20417;-92
2023/11/01 03:49:02;;;;;;;4.75;0.35;;;;;;;11.50;100.00;97106.75;4963182;28;20535;-92
2023/11/01 03:51:28;;;;;;;3.55;0.60;;;;;;;11.46;100.00;97113.56;4978818;28;20410;-91
2023/11/01 03:53:54;;;;;;;6.65;0.60;;;;;;;11.44;100.00;97107.69;4979333;28;20041;-92
2023/11/01 03:56:21;;;;;;;4.35;0.68;;;;;;;11.45;100.00;97105.84;4977831;28;20039;-90
2023/11/01 03:58:47;;;;;;;2.25;0.32;;;;;;;11.36;100.00;97092.16;4991226;28;20026;-90
2023/11/01 04:01:13;;;;;;;7.93;1.52;;;;;;;11.31;100.00;97100.81;5001111;28;20045;-92
2023/11/01 04:03:39;;;;;;;7.00;0.68;;;;;;;11.23;100.00;97099.31;4998249;28;20050;-93
2023/11/01 04:06:06;;;;;;;10.13;0.82;;;;;;;11.21;100.00;97108.53;4978109;28;20113;-93
2023/11/01 04:08:32;;;;;;;3.90;0.60;;;;;;;11.16;100.00;97098.66;4994677;28;20433;-93
2023/11/01 04:10:58;;;;;;;3.38;0.80;;;;;;;11.11;100.00;97095.88;4992891;28;20030;-90
2023/11/01 04:13:24;;;;;;;7.75;0.80;;;;;;;11.06;100.00;97101.84;4991880;28;20077;-91
2023/11/01 04:15:49;;;;;;;6.63;2.42;;;;;;;11.03;100.00;97091.75;4978015;28;20210;-94
2023/11/01 04:18:15;;;;;;;7.88;1.17;;;;;;;10.99;100.00;97091.41;4995755;28;20189;-92
2023/11/01 04:20:41;;;;;;;6.22;0.93;;;;;;;10.94;100.00;97087.84;4977197;28;20101;-94
2023/11/01 04:23:07;;;;;;;8.18;0.88;;;;;;;10.95;100.00;97089.44;4990705;28;20041;-92
2023/11/01 04:25:32;;;;;;;10.25;0.98;;;;;;;10.91;100.00;97081.97;4988625;28;20038;-93
2023/11/01 04:27:59;;;;;;;3.95;0.77;;;;;;;10.89;100.00;97086.69;4980293;28;20041;-92
2023/11/01 04:30:25;;;;;;;10.55;1.33;;;;;;;10.88;100.00;97077.16;4978262;28;20137;-91
2023/11/01 04:32:50;;;;;;;4.15;0.50;;;;;;;10.87;100.00;97080.03;4977193;28;20129;-93
2023/11/01 04:35:16;;;;;;;6.07;0.90;;;;;;;10.82;100.00;97080.72;4974889;28;20034;-91
2023/11/01 04:37:43;;;;;;;14.00;1.20;;;;;;;10.84;100.00;97072.56;4999717;28;20534;-93
2023/11/01 04:40:11;;;;;;;6.32;1.10;;;;;;;10.78;100.00;97077.72;4979142;28;20114;-91
2023/11/01 04:42:41;;;;;;;4.53;0.73;;;;;;;10.76;100.00;97079.00;5005760;28;20048;-89
2023/11/01 04:45:08;;;;;;;6.13;0.77;;;;;;;10.77;100.00;97067.38;5003962;28;20045;-92
2023/11/01 04:47:39;;;;;;;5.00;0.93;;;;;;;10.74;100.00;97067.84;5005093;28;20180;-91
2023/11/01 04:50:11;;;;;;;8.98;0.88;;;;;;;10.79;100.00;97062.69;4986134;28;20035;-91
2023/11/01 04:52:37;;;;;;;7.50;0.57;;;;;;;10.68;100.00;97064.28;4970309;28;20482;-91
2023/11/01 04:55:04;;;;;;;5.63;0.70;;;;;;;10.65;100.00;97044.41;4969503;28;20029;-92
2023/11/01 04:57:31;;;;;;;4.45;0.63;;;;;;;10.66;100.00;97032.00;4971516;28;20101;-92
2023/11/01 04:59:57;;;;;;;5.75;0.98;;;;;;;10.61;100.00;97024.78;5000766;28;20033;-92
2023/11/01 05:02:23;;;;;;;6.30;0.82;;;;;;;10.62;100.00;97030.88;4987862;28;20038;-93
2023/11/01 05:04:49;;;;;;;13.85;0.63;;;;;;;10.60;100.00;97027.66;4988621;28;20033;-91
2023/11/01 05:07:15;;;;;;;8.02;0.98;;;;;;;10.57;100.00;97021.00;4993146;28;20096;-90
2023/11/01 05:09:41;;;;;;;10.35;1.20;;;;;;;10.57;100.00;97025.47;4978148;28;20029;-91
2023/11/01 05:12:07;;;;;;;15.27;1.17;;;;;;;10.55;100.00;97020.41;4989057;28;20038;-86
2023/11/01 05:14:33;;;;;;;9.43;0.95;;;;;;;10.54;100.00;97016.97;4988725;28;20034;-91
2023/11/01 05:16:59;;;;;;;7.82;0.80;;;;;;;10.52;100.00;97003.22;4976212;28;20034;-91
2023/11/01 05:19:25;;;;;;;9.25;1.13;;;;;;;10.50;100.00;97002.63;4995149;28;20037;-93
2023/11/01 05:21:51;;;;;;;7.75;1.00;;;;;;;10.48;100.00;97009.19;5023714;28;20042;-92
2023/11/01 05:24:17;;;;;;;8.73;1.15;;;;;;;10.47;100.00;96994.34;4995819;28;20132;-92
2023/11/01 05:26:43;;;;;;;16.05;1.77;;;;;;;10.46;100.00;96995.38;4993340;28;20037;-92
2023/11/01 05:29:09;;;;;;;10.25;1.35;;;;;;;10.45;100.00;96993.75;4980106;28;20030;-92
2023/11/01 05:31:35;;;;;;;9.23;1.30;;;;;;;10.45;100.00;96985.84;4988786;28;20053;-90
2023/11/01 05:34:02;;;;;;;7.25;1.23;;;;;;;10.47;100.00;96986.44;4989836;28;20037;-79
2023/11/01 05:36:28;;;;;;;19.60;1.63;;;;;;;10.41;100.00;96969.66;4993316;28;21190;-94
2023/11/01 05:38:54;;;;;;;11.70;1.40;;;;;;;10.45;100.00;96970.78;4971532;28;20034;-91
2023/11/01 05:41:19;;;;;;;15.43;1.42;;;;;;;10.44;100.00;96961.28;4982947;28;20052;-92
2023/11/01 05:43:45;;;;;;;10.20;1.25;;;;;;;10.42;100.00;96961.50;5001955;28;20068;-92
2023/11/01 05:46:11;;;;;;;14.80;1.20;;;;;;;10.43;100.00;96952.53;4972207;28;20049;-92
2023/11/01 05:48:37;;;;;;;12.68;1.08;;;;;;;10.41;100.00;96944.06;4979881;28;20027;-91
2023/11/01 05:51:04;;;;;;;9.75;1.20;;;;;;;10.44;100.00;96945.44;4993135;28;20061;-91
2023/11/01 05:53:33;;;;;;;12.80;1.40;;;;;;;10.43;100.00;96947.25;5010373;28;20435;-91
2023/11/01 05:56:00;;;;;;;17.42;1.45;;;;;;;10.44;100.00;96934.88;4974121;28;20136;-92
2023/11/01 05:58:28;;;;;;;16.35;3.08;;;;;;;10.40;100.00;96929.25;4978826;28;20482;-92
2023/11/01 06:00:54;;;;;;;13.25;2.05;;;;;;;10.35;100.00;96926.47;4991484;28;20485;-91
2023/11/01 06:03:20;;;;;;;14.30;1.80;;;;;;;10.29;100.00;96930.03;4995132;28;20045;-92
2023/11/01 06:05:46;;;;;;;16.98;1.88;;;;;;;10.28;100.00;96912.59;4991749;28;20034;-91
2023/11/01 06:08:12;;;;;;;22.25;1.88;;;;;;;10.24;100.00;96908.81;5003786;28;20037;-92
2023/11/01 06:10:38;;;;;;;17.75;2.75;;;;;;;10.13;100.00;96899.88;4976027;28;20038;-92
2023/11/01 06:13:08;;;;;;;22.58;2.10;;;;;;;10.13;100.00;96899.88;4992689;28;20034;-92
2023/11/01 06:15:36;;;;;;;14.35;2.15;;;;;;;10.08;100.00;96900.53;4990870;28;20037;-91
2023/11/01 06:18:04;;;;;;;14.90;2.28;;;;;;;10.04;100.00;96888.84;4989080;28;20050;-92
2023/11/01 06:20:36;;;;;;;13.35;2.50;;;;;;;10.06;100.00;96886.78;4966158;28;20482;-92
2023/11/01 06:23:07;;;;;;;16.58;2.67;;;;;;;10.03;100.00;96881.97;4973759;28;20044;-91
2023/11/01 06:25:34;;;;;;;10.25;1.95;;;;;;;10.01;100.00;96881.41;4985628;28;20042;-91
2023/11/01 06:27:59;;;;;;;16.77;1.98;;;;;;;10.00;100.00;96879.78;4973336;28;20026;-91
2023/11/01 06:30:25;;;;;;;18.98;2.35;;;;;;;10.00;100.00;96888.50;4991480;28;20061;-91
2023/11/01 06:32:51;;;;;;;17.70;2.28;;;;;;;9.99;100.00;96876.34;4975717;28;20029;-92
2023/11/01 06:35:17;;;;;;;22.35;3.45;;;;;;;10.02;100.00;96875.06;4991895;28;20038;-92
2023/11/01 06:37:43;;;;;;;16.90;2.25;;;;;;;10.04;100.00;96867.75;4989506;28;20038;-93
2023/11/01 06:40:09;;;;;;;17.85;2.03;;;;;;;10.07;100.00;96867.28;4982867;28;20030;-92
2023/11/01 06:42:35;;;;;;;17.17;2.10;;;;;;;10.05;100.00;96859.59;4976216;28;20041;-92
2023/11/01 06:45:01;;;;;;;34.25;2.80;;;;;;;10.09;100.00;96853.84;4974538;28;20453;-91
2023/11/01 06:47:27;;;;;;;18.02;2.80;;;;;;;10.07;100.00;96845.38;5019865;28;20034;-92
2023/11/01 06:49:52;;;;;;;15.02;2.00;;;;;;;10.04;100.00;96834.25;4986210;28;20387;-92
2023/11/01 06:52:18;;;;;;;19.00;2.25;;;;;;;10.01;100.00;96834.72;4988505;28;20576;-92
2023/11/01 06:54:44;;;;;;;14.40;2.28;;;;;;;9.97;100.00;96830.91;4992781;28;20037;-92
2023/11/01 06:57:10;;;;;;;14.38;2.22;;;;;;;9.96;100.00;96829.31;4974444;28;20042;-91
2023/11/01 06:59:38;;;;;;;18.17;3.20;;;;;;;9.93;100.00;96835.88;4987805;28;20038;-92
2023/11/01 07:02:08;;;;;;;26.58;2.22;;;;;;;9.91;100.00;96842.38;4990362;28;20034;-93
2023/11/01 07:04:34;;;;;;;17.35;1.70;;;;;;;9.90;100.00;96833.69;4991934;28;20048;-91
2023/11/01 07:07:00;;;;;;;16.58;2.47;;;;;;;9.90;100.00;96840.78;5010945;28;20038;-92
2023/11/01 07:09:26;;;;;;;16.83;2.33;;;;;;;9.91;100.00;96847.66;4968045;28;20474;-93
2023/11/01 07:11:52;;;;;;;17.35;2.40;;;;;;;9.93;100.00;96840.34;5023051;28;20049;-92
2023/11/01 07:14:17;;;;;;;13.15;2.65;;;;;;;9.96;100.00;96837.22;5009154;28;20040;-92
2023/11/01 07:16:45;;;;;;;13.85;2.58;;;;;;;9.93;100.00;96840.34;4976059;28;20033;-92
2023/11/01 07:19:14;;;;;;;14.43;2.28;;;;;;;9.95;100.00;96843.56;4983164;28;20072;-92
2023/11/01 07:21:41;;;;;;;11.93;1.77;;;;;;;9.97;100.00;96844.09;4978160;28;20045;-91
2023/11/01 07:24:10;;;;;;;8.73;1.67;;;;;;;10.07;100.00;96840.09;5024494;28;20041;-91
2023/11/01 07:26:36;;;;;;;14.52;1.38;;;;;;;10.08;100.00;96834.56;4993852;28;20391;-91
2023/11/01 07:29:02;;;;;;;15.73;1.60;;;;;;;10.12;100.00;96838.38;4975737;28;20117;-91
2023/11/01 07:31:28;;;;;;;15.38;2.22;;;;;;;10.18;100.00;96839.28;5003818;28;20069;-91
2023/11/01 07:33:54;;;;;;;15.73;2.22;;;;;;;10.23;100.00;96835.94;4976550;28;20061;-91
2023/11/01 07:36:20;;;;;;;20.83;2.78;;;;;;;10.25;100.00;96841.81;4979883;28;20045;-91
2023/11/01 07:38:46;;;;;;;17.90;1.95;;;;;;;10.29;100.00;96843.75;5011039;28;20088;-91
2023/11/01 07:41:12;;;;;;;14.73;2.42;;;;;;;10.30;100.00;96849.84;4977773;28;20030;-90
2023/11/01 07:43:42;;;;;;;17.30;2.08;;;;;;;10.37;100.00;96854.97;4992620;28;20338;-90
2023/11/01 07:46:08;;;;;;;9.70;1.55;;;;;;;10.37;100.00;96855.78;4992903;28;20038;-91
2023/11/01 07:48:35;;;;;;;11.05;1.92;;;;;;;10.40;100.00;96865.88;5010883;28;20037;-92
2023/11/01 07:51:10;;;;;;;11.73;1.90;;;;;;;10.47;100.00;96862.34;5010172;28;20080;-91
2023/11/01 07:53:36;;;;;;;18.27;1.92;;;;;;;10.41;100.00;96864.88;5013220;28;20096;-91
2023/11/01 07:56:02;;;;;;;13.15;2.10;;;;;;;10.42;100.00;96868.28;4979513;28;20037;-91
2023/11/01 07:58:29;;;;;;;12.43;1.85;;;;;;;10.38;100.00;96873.22;4990855;28;20061;-91
2023/11/01 08:00:55;;;;;;;18.48;2.72;;;;;;;10.35;100.00;96873.69;4977505;28;20083;-91
2023/11/01 08:03:20;;;;;;;12.07;1.65;;;;;;;10.32;100.00;96876.78;4994891;28;20037;-90
2023/11/01 08:05:46;;;;;;;16.90;1.95;;;;;;;10.30;100.00;96892.06;4993057;28;20031;-90
2023/11/01 08:08:12;;;;;;;12.50;2.42;;;;;;;10.20;100.00;96892.63;4976291;28;20041;-90
2023/11/01 08:10:37;;;;;;;11.43;1.80;;;;;;;10.13;100.00;96892.75;5000282;28;20034;-90
2023/11/01 08:13:03;;;;;;;15.05;2.20;;;;;;;10.10;100.00;96900.31;5010149;28;20034;-89
2023/11/01 08:15:33;;;;;;;19.88;3.08;;;;;;;10.02;100.00;96902.28;5007061;28;20383;-90
2023/11/01 08:18:02;;;;;;;15.25;2.30;;;;;;;9.99;100.00;96901.91;4967119;28;20042;-90
2023/11/01 08:20:30;;;;;;;18.27;2.40;;;;;;;9.91;100.00;96903.06;4991894;28;20062;-89
2023/11/01 08:22:56;;;;;;;11.77;2.20;;;;;;;9.90;100.00;96912.00;5012442;28;20053;-90
2023/11/01 08:25:23;;;;;;;17.65;2.50;;;;;;;9.87;100.00;96915.91;4977777;28;20666;-90
2023/11/01 08:27:49;;;;;;;9.82;2.55;;;;;;;9.88;100.00;96941.25;4986799;28;20029;-91
2023/11/01 08:30:15;;;;;;;13.77;2.50;;;;;;;9.88;100.00;96937.81;5009394;28;20438;-92
2023/11/01 08:32:41;;;;;;;12.93;2.10;;;;;;;9.88;100.00;96924.63;4991963;28;20054;-91
2023/11/01 08:35:08;;;;;;;10.63;1.83;;;;;;;9.87;100.00;96941.47;4994557;28;20042;-81
2023/11/01 08:37:37;;;;;;;10.00;1.50;;;;;;;9.76;100.00;96941.22;4993484;28;20101;-90
2023/11/01 08:40:03;;;;;;;6.75;1.17;;;;;;;9.73;100.00;96928.47;4980624;28;20038;-89
2023/11/01 08:42:29;;;;;;;6.05;0.65;;;;;;;9.68;100.00;96936.28;4993651;28;20034;-91
2023/11/01 08:44:55;;;;;;;4.82;0.80;;;;;;;9.66;100.00;96940.97;5009994;28;20056;-92
2023/11/01 08:47:33;;;;;;;2.60;0.63;;;;;;;9.68;100.00;96949.47;4976022;28;20120;-92
2023/11/01 08:49:59;;;;;;;5.13;0.52;;;;;;;9.63;100.00;96963.34;4993972;28;20022;-92
2023/11/01 08:52:24;;;;;;;10.27;0.65;;;;;;;9.63;100.00;96954.63;4992211;28;20041;-91
2023/11/01 08:54:50;;;;;;;4.25;0.50;;;;;;;9.61;100.00;96967.22;4979142;28;20394;-92
2023/11/01 08:57:16;;;;;;;2.58;0.38;;;;;;;9.63;100.00;96957.25;4976224;28;20034;-92
2023/11/01 08:59:42;;;;;;;4.85;0.80;;;;;;;9.63;100.00;96975.72;4948973;28;20049;-91
2023/11/01 09:02:07;;;;;;;2.83;0.57;;;;;;;9.64;100.00;96972.84;4971221;28;20038;-93
2023/11/01 09:04:33;;;;;;;1.58;0.38;;;;;;;9.61;100.00;96977.75;4969119;28;20038;-91
2023/11/01 09:06:59;;;;;;;5.38;0.60;;;;;;;9.57;100.00;96981.88;4994733;28;20034;-93
2023/11/01 09:09:25;;;;;;;3.30;1.15;;;;;;;9.54;100.00;96970.75;5008137;28;20115;-93
2023/11/01 09:11:51;;;;;;;3.75;0.63;;;;;;;9.56;100.00;96983.69;5006369;28;20042;-93
2023/11/01 09:14:17;;;;;;;6.90;1.38;;;;;;;9.49;100.00;96991.69;4993798;28;20048;-92
2023/11/01 09:16:42;;;;;;;3.92;0.60;;;;;;;9.39;100.00;96988.78;5011500;28;20050;-92
2023/11/01 09:19:08;;;;;;;5.50;0.60;;;;;;;9.41;100.00;96994.66;4974472;28;20045;-94
2023/11/01 09:21:35;;;;;;;6.13;0.63;;;;;;;9.39;100.00;96976.44;5012957;28;20038;-93
2023/11/01 09:24:03;;;;;;;3.47;0.52;;;;;;;9.39;100.00;96992.25;4997745;28;20399;-94
2023/11/01 09:26:29;;;;;;;4.80;0.60;;;;;;;9.39;100.00;97002.78;4997196;28;20034;-94
2023/11/01 09:28:54;;;;;;;5.78;0.60;;;;;;;9.34;100.00;97005.28;5012227;28;20030;-94
2023/11/01 09:31:20;;;;;;;6.47;0.70;;;;;;;9.37;100.00;97004.00;5001801;28;20022;-96
2023/11/01 09:33:48;;;;;;;5.60;0.60;;;;;;;9.36;100.00;97026.94;5003331;28;20101;-95
2023/11/01 09:36:17;;;;;;;7.45;1.00;;;;;;;9.42;100.00;97023.44;4975446;28;20042;-94
2023/11/01 09:38:43;;;;;;;1.95;0.63;;;;;;;9.33;100.00;97023.94;4994597;28;20065;-92
2023/11/01 09:41:09;;;;;;;6.68;0.98;;;;;;;9.35;100.00;97041.13;4979754;28;20034;-93
2023/11/01 09:43:36;;;;;;;5.13;0.85;;;;;;;9.31;100.00;97053.16;4993456;28;20134;-93
2023/11/01 09:46:06;;;;;;;6.57;0.93;;;;;;;9.30;100.00;97047.06;4981440;28;20116;-92
2023/11/01 09:48:33;;;;;;;6.03;0.60;;;;;;;9.33;100.00;97042.41;4982225;28;20132;-95
2023/11/01 09:51:01;;;;;;;4.78;0.80;;;;;;;9.30;100.00;97049.72;4975561;28;20035;-92
2023/11/01 09:53:27;;;;;;;9.57;1.33;;;;;;;9.33;100.00;97051.13;5005475;28;20040;-93
2023/11/01 09:55:53;;;;;;;13.07;1.30;;;;;;;9.37;100.00;97052.28;4996018;28;20117;-91
2023/11/01 09:58:19;;;;;;;5.82;0.68;;;;;;;9.37;100.00;97062.00;4980528;28;20470;-91
2023/11/01 10:00:46;;;;;;;4.95;1.15;;;;;;;9.46;100.00;97047.50;5013605;28;20088;-95
2023/11/01 10:03:12;;;;;;;3.92;0.60;;;;;;;9.49;100.00;97054.97;4991908;28;20390;-92
2023/11/01 10:05:38;;;;;;;6.88;0.70;;;;;;;9.59;100.00;97048.38;4975545;28;20030;-94
2023/11/01 10:08:04;;;;;;;7.55;1.35;;;;;;;9.63;100.00;97047.72;4991741;28;21013;-94
2023/11/01 10:10:30;;;;;;;9.82;1.20;;;;;;;9.65;100.00;97061.47;4977193;28;20026;-92
2023/11/01 10:12:56;;;;;;;4.10;0.70;;;;;;;9.63;100.00;97071.44;4985523;28;20042;-94
2023/11/01 10:15:22;;;;;;;5.43;0.93;;;;;;;9.65;100.00;97069.38;4994328;28;20394;-92
2023/11/01 10:17:54;;;;;;;6.63;0.85;;;;;;;9.76;100.00;97074.94;4977471;28;20042;-95
2023/11/01 10:20:27;;;;;;;5.68;0.70;;;;;;;9.73;100.00;97076.16;4990625;28;20041;-94
2023/11/01 10:22:54;;;;;;;4.43;1.35;;;;;;;9.67;100.00;97064.69;4993162;28;20041;-93
2023/11/01 10:25:20;;;;;;;7.25;0.80;;;;;;;9.67;100.00;97079.69;5001247;28;20050;-94
2023/11/01 10:27:47;;;;;;;7.68;1.02;;;;;;;9.66;100.00;97086.81;4970393;28;20074;-93
2023/11/01 10:30:14;;;;;;;5.18;0.90;;;;;;;9.65;100.00;97077.28;4989500;28;20026;-94
2023/11/01 10:32:58;;;;;;;8.48;1.20;;;;;;;9.66;100.00;97086.00;4991159;28;20042;-93
2023/11/01 10:35:26;;;;;;;6.88;0.90;;;;;;;9.58;100.00;97087.13;5009695;28;20132;-92
2023/11/01 10:37:56;;;;;;;7.78;1.95;;;;;;;9.61;100.00;97089.31;4976945;28;20038;-92
2023/11/01 10:40:22;;;;;;;5.95;1.00;;;;;;;9.52;100.00;97091.44;5000985;28;20434;-94
2023/11/01 10:42:53;;;;;;;8.80;1.02;;;;;;;9.54;100.00;97092.03;5006598;28;20127;-94
2023/11/01 10:45:18;;;;;;;6.90;1.13;;;;;;;9.47;100.00;97083.41;4996247;28;20037;-92
2023/11/01 10:47:47;;;;;;;10.63;0.90;;;;;;;9.52;100.00;97065.06;5009715;28;20052;-95
2023/11/01 10:50:13;;;;;;;6.25;0.95;;;;;;;9.60;100.00;97069.25;4988828;28;20475;-81
2023/11/01 10:52:41;;;;;;;5.80;1.23;;;;;;;9.74;100.00;97075.16;4992796;28;20041;-93
2023/11/01 10:55:09;;;;;;;9.10;2.10;;;;;;;9.83;100.00;97070.38;4991330;28;20038;-92
2023/11/01 10:57:36;;;;;;;5.03;0.98;;;;;;;9.79;100.00;97077.91;4992092;28;20038;-94
2023/11/01 11:00:08;;;;;;;11.07;0.95;;;;;;;9.87;100.00;97086.56;4996357;28;20210;-93
2023/11/01 11:02:42;;;;;;;14.10;1.40;;;;;;;9.97;100.00;97076.25;4977792;28;20042;-92
2023/11/01 11:05:13;;;;;;;9.48;1.63;;;;;;;9.97;100.00;97071.00;5009486;28;20277;-92
2023/11/01 11:07:50;;;;;;;16.25;2.25;;;;;;;9.95;100.00;97082.81;4971238;28;20069;-94
2023/11/01 11:10:21;;;;;;;17.00;2.60;;;;;;;9.94;100.00;97079.34;4994063;28;20080;-93
2023/11/01 11:13:17;;;;;;;21.85;3.35;;;;;;;10.03;100.00;97087.78;4972472;28;20129;-92
2023/11/01 11:15:50;;;;;;;15.32;2.17;;;;;;;10.14;100.00;97094.13;5027168;28;20046;-95
2023/11/01 11:18:22;;;;;;;18.52;2.42;;;;;;;10.30;100.00;97087.41;4981838;28;20053;-95
2023/11/01 11:20:50;;;;;;;21.40;2.65;;;;;;;10.40;100.00;97092.91;4999358;28;20034;-93
2023/11/01 11:23:16;;;;;;;20.30;3.83;;;;;;;10.54;100.00;97082.97;4986936;28;20049;-96